Time;durP1;ratioP1;P1;durP2;ratioP2;P2;SDS_P1;SDS_P2;PMS_P1;PMS_P2;Temp;Humidity;BMP_temperature;BMP_pressure;BME280_temperature;BME280_humidity;BME280_pressure;Samples;Min_cycle;Max_cycle;Signal;HPM_P1;HPM_P2
2022/04/19 00:01:50;;;;;;;7.63;4.93;;;5.90;99.90;;;;;;5006740;28;20044;-84
2022/04/19 00:04:18;;;;;;;7.60;5.70;;;5.80;99.90;;;;;;5011748;28;20080;-84
2022/04/19 00:06:45;;;;;;;7.95;5.30;;;5.80;99.90;;;;;;5020322;28;20134;-83
2022/04/19 00:09:10;;;;;;;7.15;5.55;;;5.70;99.90;;;;;;5014792;28;20076;-83
2022/04/19 00:11:36;;;;;;;6.65;5.18;;;5.60;99.90;;;;;;5000879;28;20459;-84
2022/04/19 00:14:02;;;;;;;8.23;6.60;;;5.60;99.90;;;;;;5001436;28;20050;-83
2022/04/19 00:16:28;;;;;;;11.48;6.00;;;5.60;99.90;;;;;;5018933;28;20042;-84
2022/04/19 00:18:54;;;;;;;9.38;5.85;;;5.50;99.90;;;;;;5013865;28;20182;-83
2022/04/19 00:21:20;;;;;;;7.75;5.82;;;5.40;99.90;;;;;;5012083;28;20045;-84
2022/04/19 00:23:46;;;;;;;7.57;5.65;;;5.40;99.90;;;;;;4997752;28;20879;-83
2022/04/19 00:26:12;;;;;;;10.45;6.65;;;5.40;99.90;;;;;;4998388;28;20510;-84
2022/04/19 00:28:38;;;;;;;13.27;6.47;;;5.20;99.90;;;;;;4996435;28;20081;-83
2022/04/19 00:31:04;;;;;;;8.23;6.47;;;5.20;99.90;;;;;;4980646;28;20089;-83
2022/04/19 00:33:30;;;;;;;8.00;6.47;;;5.20;99.90;;;;;;5001554;28;20045;-84
2022/04/19 00:35:56;;;;;;;10.00;6.43;;;5.10;99.90;;;;;;5000576;28;20778;-84
2022/04/19 00:38:22;;;;;;;8.70;6.13;;;5.10;99.90;;;;;;5017300;28;20048;-83
2022/04/19 00:40:48;;;;;;;9.10;6.38;;;5.00;99.90;;;;;;4981316;28;20098;-84
2022/04/19 00:43:17;;;;;;;9.65;7.15;;;5.00;99.90;;;;;;4995803;28;20037;-84
2022/04/19 00:45:42;;;;;;;12.75;8.13;;;5.00;99.90;;;;;;4997886;28;20075;-84
2022/04/19 00:48:08;;;;;;;9.07;7.00;;;5.00;99.90;;;;;;4999174;28;20123;-84
2022/04/19 00:50:34;;;;;;;8.90;6.45;;;4.90;99.90;;;;;;4995972;28;20085;-84
2022/04/19 00:53:01;;;;;;;7.85;6.50;;;4.90;99.90;;;;;;4995991;28;20045;-84
2022/04/19 00:55:27;;;;;;;9.70;6.90;;;4.90;99.90;;;;;;4977073;28;20059;-83
2022/04/19 00:57:53;;;;;;;9.77;6.63;;;4.90;99.90;;;;;;4994662;28;20129;-83
2022/04/19 01:00:20;;;;;;;11.52;6.95;;;4.80;99.90;;;;;;4996408;28;20061;-84
2022/04/19 01:02:45;;;;;;;9.43;7.20;;;4.80;99.90;;;;;;5023357;28;20052;-84
2022/04/19 01:05:11;;;;;;;8.98;7.05;;;4.80;99.90;;;;;;4984233;28;20180;-85
2022/04/19 01:07:39;;;;;;;9.13;7.30;;;4.80;99.90;;;;;;4995330;28;20132;-83
2022/04/19 01:10:05;;;;;;;11.00;6.78;;;4.80;99.90;;;;;;5012614;28;20140;-85
2022/04/19 01:15:15;;;;;;;9.68;6.38;;;4.70;99.90;;;;;;5020570;28;20047;-84
2022/04/19 01:17:42;;;;;;;11.27;7.10;;;4.80;99.90;;;;;;5001776;28;20310;-83
2022/04/19 01:20:09;;;;;;;9.40;7.30;;;4.70;99.90;;;;;;5031698;28;20509;-83
2022/04/19 01:22:42;;;;;;;9.00;6.78;;;4.70;99.90;;;;;;4996111;28;20048;-83
2022/04/19 01:25:10;;;;;;;9.73;7.53;;;4.70;99.90;;;;;;4980169;28;20041;-83
2022/04/19 01:27:36;;;;;;;9.40;7.20;;;4.70;99.90;;;;;;5022346;28;20048;-83
2022/04/19 01:30:05;;;;;;;11.23;6.70;;;4.60;99.90;;;;;;5017737;28;20065;-83
2022/04/19 01:32:32;;;;;;;9.52;7.03;;;4.60;99.90;;;;;;5013011;28;20052;-84
2022/04/19 01:35:10;;;;;;;8.40;7.00;;;4.60;99.90;;;;;;5003914;28;20131;-84
2022/04/19 01:37:38;;;;;;;8.50;6.40;;;4.60;99.90;;;;;;5012005;28;20399;-83
2022/04/19 01:40:16;;;;;;;8.98;7.20;;;4.60;99.90;;;;;;5002120;28;20045;-83
2022/04/19 01:42:53;;;;;;;9.35;7.10;;;4.60;99.90;;;;;;5012032;28;20488;-84
2022/04/19 01:45:24;;;;;;;9.68;7.22;;;4.60;99.90;;;;;;5001152;28;20133;-84
2022/04/19 01:47:51;;;;;;;12.43;8.45;;;4.60;99.90;;;;;;5014129;28;20092;-83
2022/04/19 01:50:17;;;;;;;10.00;6.88;;;4.70;99.90;;;;;;4986103;28;20052;-83
2022/04/19 01:52:45;;;;;;;9.38;6.20;;;4.60;99.90;;;;;;4989905;28;20041;-84
2022/04/19 01:55:13;;;;;;;10.18;6.78;;;4.50;99.90;;;;;;4993186;28;20399;-83
2022/04/19 01:57:44;;;;;;;8.50;6.88;;;4.50;99.90;;;;;;5005250;28;20077;-82
2022/04/19 02:00:11;;;;;;;11.88;7.00;;;4.50;99.90;;;;;;4994961;28;20124;-84
2022/04/19 02:02:38;;;;;;;10.45;7.90;;;4.50;99.90;;;;;;4982793;28;20042;-83
2022/04/19 02:05:04;;;;;;;10.88;8.05;;;4.50;99.90;;;;;;4999572;28;20446;-82
2022/04/19 02:07:32;;;;;;;11.05;8.68;;;4.40;99.90;;;;;;5015550;28;20083;-83
2022/04/19 02:10:02;;;;;;;10.95;7.72;;;4.40;99.90;;;;;;5018447;28;20132;-83
2022/04/19 02:12:28;;;;;;;10.88;7.68;;;4.30;99.90;;;;;;5003010;28;20041;-83
2022/04/19 02:14:54;;;;;;;11.35;8.10;;;4.20;99.90;;;;;;5022064;28;20052;-83
2022/04/19 02:17:20;;;;;;;10.30;7.40;;;4.20;99.90;;;;;;5015796;28;20052;-84
2022/04/19 02:19:47;;;;;;;9.68;7.50;;;4.10;99.90;;;;;;5005892;28;20524;-84
2022/04/19 02:22:13;;;;;;;10.27;7.80;;;4.10;99.90;;;;;;5002575;28;20498;-83
2022/04/19 02:24:39;;;;;;;10.75;7.38;;;4.10;99.90;;;;;;4999243;28;20122;-84
2022/04/19 02:27:05;;;;;;;11.30;7.72;;;4.10;99.90;;;;;;4992962;28;20041;-83
2022/04/19 02:29:34;;;;;;;11.40;8.10;;;4.10;99.90;;;;;;4995046;28;20127;-83
2022/04/19 02:32:00;;;;;;;11.07;7.80;;;4.10;99.90;;;;;;4998409;28;20049;-83
2022/04/19 02:34:25;;;;;;;11.50;8.57;;;4.10;99.90;;;;;;4988528;28;20055;-83
2022/04/19 02:36:53;;;;;;;11.63;7.90;;;4.10;99.90;;;;;;5022087;28;20057;-82
2022/04/19 02:39:19;;;;;;;9.75;7.75;;;4.10;99.90;;;;;;5011805;28;20922;-84
2022/04/19 02:41:46;;;;;;;11.13;7.72;;;4.10;99.90;;;;;;4990653;28;20128;-83
2022/04/19 02:44:13;;;;;;;16.48;7.28;;;4.10;99.90;;;;;;4980082;28;20050;-84
2022/04/19 02:46:38;;;;;;;13.02;7.95;;;4.10;99.90;;;;;;5001598;28;20605;-86
2022/04/19 02:49:05;;;;;;;10.30;7.45;;;4.00;99.90;;;;;;5013162;28;20123;-84
2022/04/19 02:51:33;;;;;;;11.68;7.20;;;4.00;99.90;;;;;;4999514;28;20107;-84
2022/04/19 02:54:00;;;;;;;10.70;8.30;;;3.90;99.90;;;;;;4967359;28;20037;-84
2022/04/19 02:56:26;;;;;;;11.38;7.80;;;3.90;99.90;;;;;;5022417;28;20664;-86
2022/04/19 02:58:52;;;;;;;11.65;8.40;;;3.80;99.90;;;;;;5026402;28;20557;-85
2022/04/19 03:01:18;;;;;;;13.35;7.97;;;3.80;99.90;;;;;;5018147;28;20163;-83
2022/04/19 03:03:45;;;;;;;11.65;8.02;;;3.70;99.90;;;;;;5016740;28;20510;-84
2022/04/19 03:06:10;;;;;;;10.35;7.18;;;3.70;99.90;;;;;;5003648;28;20056;-83
2022/04/19 03:08:37;;;;;;;10.65;7.85;;;3.70;99.90;;;;;;5015473;28;20053;-83
2022/04/19 03:11:03;;;;;;;10.98;8.05;;;3.70;99.90;;;;;;5011104;28;20478;-83
2022/04/19 03:13:31;;;;;;;13.23;7.68;;;3.50;99.90;;;;;;4968881;28;20040;-83
2022/04/19 03:15:57;;;;;;;13.13;8.50;;;3.50;99.90;;;;;;5003012;28;20142;-84
2022/04/19 03:18:22;;;;;;;11.35;8.75;;;3.50;99.90;;;;;;4997246;28;20159;-84
2022/04/19 03:20:48;;;;;;;13.35;9.27;;;3.50;99.90;;;;;;5004229;28;20483;-83
2022/04/19 03:28:45;;;;;;;12.73;8.35;;;3.50;99.90;;;;;;5021102;28;20468;-84
2022/04/19 03:31:12;;;;;;;13.32;8.95;;;3.40;99.90;;;;;;5014181;28;20053;-84
2022/04/19 03:33:39;;;;;;;13.07;9.40;;;3.40;99.90;;;;;;5009840;28;20077;-84
2022/04/19 03:36:08;;;;;;;13.80;9.27;;;3.40;99.90;;;;;;5001787;28;20119;-83
2022/04/19 03:38:37;;;;;;;11.43;8.73;;;3.40;99.90;;;;;;5014478;28;20082;-83
2022/04/19 03:41:03;;;;;;;10.90;8.10;;;3.40;99.90;;;;;;4986979;28;20087;-83
2022/04/19 03:43:31;;;;;;;12.73;8.48;;;3.50;99.90;;;;;;5013750;28;20045;-84
2022/04/19 03:45:56;;;;;;;12.02;8.48;;;3.50;99.90;;;;;;4988857;28;20128;-84
2022/04/19 03:48:22;;;;;;;12.32;8.85;;;3.40;99.90;;;;;;5008947;28;20077;-84
2022/04/19 03:50:50;;;;;;;10.73;8.00;;;3.40;99.90;;;;;;5001447;28;20041;-83
2022/04/19 03:53:15;;;;;;;10.82;8.45;;;3.40;99.90;;;;;;4986808;28;20041;-83
2022/04/19 03:55:41;;;;;;;12.38;8.65;;;3.30;99.90;;;;;;5000252;28;20056;-83
2022/04/19 03:58:07;;;;;;;14.15;9.38;;;3.30;99.90;;;;;;4998738;28;20053;-85
2022/04/19 04:00:32;;;;;;;12.38;8.40;;;3.20;99.90;;;;;;5008435;28;20053;-83
2022/04/19 04:02:58;;;;;;;11.27;8.55;;;3.20;99.90;;;;;;5006628;28;20045;-83
2022/04/19 04:05:24;;;;;;;11.57;8.50;;;3.10;99.90;;;;;;4979301;28;20052;-84
2022/04/19 04:07:51;;;;;;;12.57;8.73;;;3.10;99.90;;;;;;4996709;28;20053;-83
2022/04/19 04:10:16;;;;;;;12.52;8.75;;;3.10;99.90;;;;;;4997725;28;20581;-83
2022/04/19 04:12:42;;;;;;;10.38;8.27;;;3.00;99.90;;;;;;5000567;28;20137;-84
2022/04/19 04:15:08;;;;;;;11.90;8.63;;;3.10;99.90;;;;;;4994095;28;20041;-84
2022/04/19 04:17:34;;;;;;;12.77;8.93;;;3.00;99.90;;;;;;4996020;28;20052;-83
2022/04/19 04:20:00;;;;;;;14.52;9.32;;;2.90;99.90;;;;;;5003678;28;20041;-84
2022/04/19 04:22:27;;;;;;;13.95;9.20;;;2.90;99.90;;;;;;4996262;28;20049;-84
2022/04/19 04:24:53;;;;;;;13.48;9.93;;;2.90;99.90;;;;;;5012623;28;20068;-83
2022/04/19 04:27:19;;;;;;;15.18;10.32;;;2.80;99.90;;;;;;5015787;28;20500;-85
2022/04/19 04:29:45;;;;;;;19.10;10.80;;;2.80;99.90;;;;;;4999134;28;20132;-84
2022/04/19 04:32:10;;;;;;;20.75;10.57;;;2.80;99.90;;;;;;4989195;28;20033;-84
2022/04/19 04:34:36;;;;;;;14.43;9.93;;;2.80;99.90;;;;;;5020208;28;20048;-83
2022/04/19 04:37:02;;;;;;;17.88;10.68;;;2.80;99.90;;;;;;5019777;28;20061;-84
2022/04/19 04:39:27;;;;;;;16.92;10.48;;;2.80;99.90;;;;;;5029451;28;20055;-85
2022/04/19 04:41:53;;;;;;;15.93;10.38;;;2.80;99.90;;;;;;5015643;28;20128;-82
2022/04/19 04:44:19;;;;;;;15.40;10.52;;;2.80;99.90;;;;;;5005539;28;20130;-83
2022/04/19 04:49:39;;;;;;;16.85;10.20;;;2.80;99.90;;;;;;5014378;28;20128;-84
2022/04/19 04:52:13;;;;;;;15.60;10.32;;;2.80;99.90;;;;;;5013577;28;20464;-83
2022/04/19 04:54:40;;;;;;;15.90;10.50;;;2.80;99.90;;;;;;5002768;28;20052;-83
2022/04/19 04:57:07;;;;;;;15.45;10.23;;;2.80;99.90;;;;;;5013517;28;20077;-86
2022/04/19 04:59:34;;;;;;;15.35;10.60;;;2.90;99.90;;;;;;5002884;28;20047;-84
2022/04/19 05:02:00;;;;;;;20.48;10.75;;;2.90;99.90;;;;;;5016856;28;20408;-83
2022/04/19 05:04:26;;;;;;;15.30;10.20;;;3.00;99.90;;;;;;4992798;28;20191;-83
2022/04/19 05:06:52;;;;;;;14.98;9.98;;;3.10;99.90;;;;;;4980378;28;20524;-85
2022/04/19 05:09:18;;;;;;;16.98;10.75;;;3.20;99.90;;;;;;4997104;28;20037;-83
2022/04/19 05:11:46;;;;;;;15.45;10.65;;;3.30;99.90;;;;;;5013295;28;20049;-84
2022/04/19 05:14:13;;;;;;;16.35;10.65;;;3.50;99.90;;;;;;4998089;28;20050;-84
2022/04/19 05:16:39;;;;;;;17.13;11.25;;;3.70;99.90;;;;;;4984786;28;20044;-84
2022/04/19 05:19:05;;;;;;;18.52;10.77;;;3.70;99.90;;;;;;4987685;28;20044;-86
2022/04/19 05:21:31;;;;;;;16.05;11.05;;;3.80;99.90;;;;;;5000254;28;20095;-85
2022/04/19 05:23:57;;;;;;;19.52;11.73;;;3.90;99.90;;;;;;4995790;28;20041;-85
2022/04/19 05:26:27;;;;;;;15.52;10.10;;;4.00;99.90;;;;;;4996566;28;20044;-85
2022/04/19 05:28:53;;;;;;;16.98;10.77;;;4.10;99.90;;;;;;5020871;28;20083;-87
2022/04/19 05:31:19;;;;;;;14.63;10.00;;;4.20;99.90;;;;;;4991806;28;20054;-85
2022/04/19 05:33:45;;;;;;;17.30;11.15;;;4.30;99.90;;;;;;4987133;28;20392;-85
2022/04/19 05:36:12;;;;;;;18.20;10.55;;;4.60;99.90;;;;;;4991457;28;20042;-86
2022/04/19 05:38:38;;;;;;;15.93;10.95;;;4.70;99.90;;;;;;4972682;28;20037;-87
2022/04/19 05:41:04;;;;;;;15.68;10.02;;;5.00;99.90;;;;;;4988074;28;20171;-87
2022/04/19 05:43:30;;;;;;;19.75;10.13;;;5.20;99.90;;;;;;4991928;28;20507;-86
2022/04/19 05:45:57;;;;;;;14.75;10.70;;;5.40;99.90;;;;;;4971279;28;20860;-86
2022/04/19 05:48:24;;;;;;;16.25;9.98;;;5.70;99.90;;;;;;4983608;28;20049;-86
2022/04/19 05:50:50;;;;;;;15.65;10.18;;;6.00;99.90;;;;;;5005759;28;20145;-85
2022/04/19 05:53:15;;;;;;;14.07;9.43;;;6.20;99.90;;;;;;4989827;28;20042;-86
2022/04/19 05:55:41;;;;;;;14.57;9.63;;;6.60;99.90;;;;;;4990366;28;20056;-88
2022/04/19 05:58:07;;;;;;;13.02;10.18;;;6.70;99.90;;;;;;4988614;28;20563;-87
2022/04/19 06:00:33;;;;;;;14.82;9.40;;;7.10;99.90;;;;;;5006845;28;20128;-86
2022/04/19 06:05:42;;;;;;;14.90;9.30;;;7.50;99.90;;;;;;5004617;28;20053;-84
2022/04/19 06:08:08;;;;;;;12.98;9.07;;;7.80;99.90;;;;;;4992207;28;20080;-84
2022/04/19 06:10:34;;;;;;;12.20;9.50;;;8.00;99.90;;;;;;5011380;28;20052;-85
2022/04/19 06:12:59;;;;;;;14.27;9.05;;;8.30;99.90;;;;;;4978503;28;20042;-84
2022/04/19 06:15:25;;;;;;;12.88;8.80;;;8.50;99.90;;;;;;4979773;28;20045;-85
2022/04/19 06:17:51;;;;;;;15.80;9.60;;;8.80;99.90;;;;;;5011782;28;20049;-84
2022/04/19 06:20:16;;;;;;;14.45;8.68;;;9.00;99.90;;;;;;4995133;28;20041;-86
2022/04/19 06:22:44;;;;;;;12.18;8.60;;;9.30;99.90;;;;;;4956439;28;20514;-84
2022/04/19 06:25:10;;;;;;;12.10;9.10;;;9.50;99.90;;;;;;5009369;28;20045;-85
2022/04/19 06:27:36;;;;;;;12.18;8.80;;;9.70;99.90;;;;;;4992319;28;20048;-86
2022/04/19 06:30:02;;;;;;;14.32;7.97;;;9.90;99.90;;;;;;4982827;28;20061;-87
2022/04/19 06:32:28;;;;;;;11.18;7.95;;;10.00;99.90;;;;;;4988154;28;20042;-85
2022/04/19 06:34:54;;;;;;;18.63;7.85;;;10.10;99.90;;;;;;4994326;28;20053;-85
2022/04/19 06:37:22;;;;;;;11.35;8.02;;;10.20;99.90;;;;;;5006029;28;20483;-85
2022/04/19 06:39:48;;;;;;;9.75;7.45;;;10.20;99.90;;;;;;5011514;28;20119;-86
2022/04/19 06:42:14;;;;;;;11.77;8.23;;;10.20;99.90;;;;;;4993943;28;20406;-85
2022/04/19 06:44:40;;;;;;;13.63;7.97;;;10.30;99.90;;;;;;4981295;28;20064;-85
2022/04/19 06:47:07;;;;;;;13.52;8.60;;;10.30;99.90;;;;;;4997454;28;20045;-85
2022/04/19 06:49:33;;;;;;;10.50;8.02;;;10.30;99.90;;;;;;5018110;28;20049;-85
2022/04/19 06:51:59;;;;;;;10.95;7.75;;;10.40;99.90;;;;;;4983625;28;20080;-85
2022/04/19 06:54:25;;;;;;;11.55;8.60;;;10.50;99.90;;;;;;4998863;28;20096;-85
2022/04/19 06:56:50;;;;;;;12.13;7.97;;;10.50;99.90;;;;;;5005480;28;20549;-84
2022/04/19 06:59:16;;;;;;;10.50;7.97;;;10.50;99.90;;;;;;5001365;28;20056;-85
2022/04/19 07:01:43;;;;;;;13.27;8.48;;;10.50;99.90;;;;;;4977039;28;20064;-85
2022/04/19 07:04:09;;;;;;;10.10;7.28;;;10.50;99.90;;;;;;4987796;28;20089;-85
2022/04/19 07:06:35;;;;;;;11.82;7.70;;;10.40;99.90;;;;;;4966250;28;20056;-85
2022/04/19 07:09:01;;;;;;;18.48;11.40;;;10.40;99.90;;;;;;4981299;28;20518;-86
2022/04/19 07:11:27;;;;;;;10.93;7.20;;;10.40;99.90;;;;;;4998679;28;20061;-85
2022/04/19 07:13:53;;;;;;;10.80;7.53;;;10.40;99.90;;;;;;4997515;28;20049;-85
2022/04/19 07:16:19;;;;;;;11.23;6.82;;;10.40;99.90;;;;;;5021289;28;20045;-85
2022/04/19 07:18:44;;;;;;;11.63;6.85;;;10.40;99.90;;;;;;4998916;28;20047;-85
2022/04/19 07:26:38;;;;;;;14.35;6.90;;;10.50;99.90;;;;;;4998460;28;20041;-85
2022/04/19 07:29:04;;;;;;;9.02;6.63;;;10.50;99.90;;;;;;4982573;28;20057;-85
2022/04/19 07:31:32;;;;;;;12.63;7.25;;;10.60;99.90;;;;;;4993542;28;20518;-85
2022/04/19 07:33:59;;;;;;;10.90;6.90;;;10.70;99.90;;;;;;4988405;28;20038;-83
2022/04/19 07:36:25;;;;;;;10.95;6.97;;;10.70;99.90;;;;;;4990101;28;20577;-86
2022/04/19 07:38:51;;;;;;;11.80;7.47;;;10.80;99.90;;;;;;4955132;28;20041;-85
2022/04/19 07:41:17;;;;;;;11.50;8.75;;;10.90;99.90;;;;;;4997262;28;20045;-85
2022/04/19 07:43:45;;;;;;;11.27;7.57;;;10.90;99.90;;;;;;5010108;28;20111;-85
2022/04/19 07:46:15;;;;;;;10.88;7.75;;;10.90;99.90;;;;;;4966660;28;20054;-86
2022/04/19 07:48:45;;;;;;;12.93;7.78;;;10.90;99.90;;;;;;4986174;28;20069;-85
2022/04/19 07:51:11;;;;;;;10.77;7.72;;;11.00;99.90;;;;;;4991760;28;20064;-84
2022/04/19 07:53:37;;;;;;;14.30;8.15;;;11.00;99.90;;;;;;4995578;28;20045;-86
2022/04/19 07:56:03;;;;;;;10.60;7.50;;;11.00;99.90;;;;;;4980988;28;20532;-86
2022/04/19 07:58:29;;;;;;;10.77;7.68;;;11.10;99.90;;;;;;5008247;28;20096;-87
2022/04/19 08:00:55;;;;;;;9.10;6.65;;;11.10;99.90;;;;;;4991834;28;20084;-85
2022/04/19 08:03:21;;;;;;;10.52;7.40;;;11.20;99.90;;;;;;4993733;28;20034;-85
2022/04/19 08:05:47;;;;;;;11.95;6.95;;;11.30;99.90;;;;;;4987077;28;20053;-84
2022/04/19 08:08:12;;;;;;;11.18;7.18;;;11.30;99.90;;;;;;4989932;28;20414;-85
2022/04/19 08:10:38;;;;;;;12.38;5.93;;;11.30;99.90;;;;;;4989482;28;20488;-85
2022/04/19 08:13:07;;;;;;;9.77;6.95;;;11.40;99.90;;;;;;4975702;28;20120;-86
2022/04/19 08:15:32;;;;;;;6.65;5.55;;;11.50;99.90;;;;;;4981787;28;20057;-86
2022/04/19 08:18:00;;;;;;;7.38;5.55;;;11.50;99.90;;;;;;4977763;28;20449;-86
2022/04/19 08:20:27;;;;;;;8.35;6.15;;;11.60;99.90;;;;;;5009179;28;20049;-85
2022/04/19 08:22:52;;;;;;;10.45;6.00;;;11.60;99.90;;;;;;4995924;28;20049;-86
2022/04/19 08:25:18;;;;;;;7.63;5.40;;;11.70;99.90;;;;;;4980254;28;20439;-85
2022/04/19 08:27:48;;;;;;;10.35;6.30;;;11.80;99.90;;;;;;4994473;28;20041;-85
2022/04/19 08:30:15;;;;;;;13.43;5.75;;;11.90;99.90;;;;;;4995841;28;20053;-85
2022/04/19 08:32:42;;;;;;;8.32;5.28;;;11.90;99.90;;;;;;5006659;28;20499;-85
2022/04/19 08:35:09;;;;;;;6.38;4.45;;;12.00;99.90;;;;;;4992493;28;20042;-86
2022/04/19 08:37:35;;;;;;;8.93;4.55;;;12.10;99.90;;;;;;4987373;28;20049;-85
2022/04/19 08:40:06;;;;;;;10.02;4.03;;;12.20;99.90;;;;;;5008428;28;20041;-86
2022/04/19 08:42:32;;;;;;;5.20;3.40;;;12.20;99.90;;;;;;4988568;28;20072;-85
2022/04/19 08:45:03;;;;;;;5.20;3.20;;;12.40;99.90;;;;;;4960475;28;20057;-84
2022/04/19 08:47:37;;;;;;;5.72;3.78;;;12.40;97.50;;;;;;5009686;28;20446;-84
2022/04/19 08:50:12;;;;;;;8.80;3.70;;;12.60;96.10;;;;;;4990022;28;20046;-86
2022/04/19 08:52:39;;;;;;;5.65;3.33;;;12.70;95.20;;;;;;4991705;28;20371;-85
2022/04/19 08:57:51;;;;;;;4.83;2.73;;;13.00;91.90;;;;;;5009747;28;20498;-86
2022/04/19 09:00:22;;;;;;;5.55;2.67;;;13.20;84.50;;;;;;4987617;28;20132;-86
2022/04/19 09:02:49;;;;;;;6.28;2.60;;;13.40;77.20;;;;;;4986394;28;20056;-85
2022/04/19 09:05:16;;;;;;;4.95;2.88;;;13.60;75.60;;;;;;4998729;28;20111;-86
2022/04/19 09:07:44;;;;;;;4.93;2.30;;;13.80;71.50;;;;;;4994740;28;20064;-85
2022/04/19 09:10:14;;;;;;;3.38;2.13;;;14.10;69.70;;;;;;4990955;28;20042;-86
2022/04/19 09:13:01;;;;;;;3.22;2.28;;;14.40;67.40;;;;;;4977329;28;20061;-86
2022/04/19 09:15:43;;;;;;;3.42;2.67;;;15.80;63.60;;;;;;4977418;28;20558;-86
2022/04/19 09:18:31;;;;;;;2.45;1.85;;;17.20;56.30;;;;;;4992775;28;20056;-87
2022/04/19 09:20:59;;;;;;;2.53;2.17;;;18.30;48.80;;;;;;5007257;28;20049;-87
2022/04/19 09:23:26;;;;;;;2.75;1.65;;;19.10;48.90;;;;;;4991485;28;20100;-86
2022/04/19 09:25:54;;;;;;;2.75;1.35;;;19.80;46.50;;;;;;4979059;28;20064;-87
2022/04/19 09:28:21;;;;;;;3.30;1.40;;;20.30;44.80;;;;;;4988452;28;20050;-87
2022/04/19 09:30:49;;;;;;;2.53;1.58;;;20.70;42.50;;;;;;5010379;28;20060;-86
2022/04/19 09:33:19;;;;;;;2.25;1.30;;;21.20;41.70;;;;;;5006231;28;20053;-87
2022/04/19 09:35:50;;;;;;;4.22;1.85;;;21.50;39.50;;;;;;4994667;28;20053;-87
2022/04/19 09:38:17;;;;;;;2.67;1.63;;;21.80;37.70;;;;;;4988159;28;20046;-87
2022/04/19 09:40:46;;;;;;;2.50;1.48;;;21.90;37.20;;;;;;4999338;28;20050;-86
2022/04/19 09:43:24;;;;;;;1.58;1.20;;;22.20;37.70;;;;;;5004837;28;20052;-86
2022/04/19 09:45:58;;;;;;;4.95;1.40;;;22.60;36.70;;;;;;4991445;28;20083;-86
2022/04/19 09:48:24;;;;;;;2.08;1.58;;;23.10;36.90;;;;;;4991519;28;20501;-86
2022/04/19 09:51:11;;;;;;;2.28;1.35;;;23.60;36.60;;;;;;4992992;28;20080;-85
2022/04/19 09:53:45;;;;;;;3.80;1.48;;;24.10;35.20;;;;;;5002138;28;20050;-87
2022/04/19 09:56:16;;;;;;;1.38;1.27;;;24.30;33.70;;;;;;4989729;28;20521;-87
2022/04/19 09:58:46;;;;;;;13.73;1.90;;;24.40;32.90;;;;;;5008526;28;20203;-87
2022/04/19 10:09:31;;;;;;;2.30;1.88;;;25.30;32.40;;;;;;5009689;28;20053;-87
2022/04/19 10:11:58;;;;;;;3.75;1.70;;;25.60;31.30;;;;;;4983802;28;20059;-88
2022/04/19 10:14:24;;;;;;;3.20;1.67;;;25.70;30.40;;;;;;5007774;28;20037;-87
2022/04/19 10:16:50;;;;;;;2.33;1.42;;;25.50;29.50;;;;;;4989835;28;20045;-87
2022/04/19 10:19:17;;;;;;;2.95;1.40;;;25.50;29.40;;;;;;5005559;28;20050;-86
2022/04/19 10:21:45;;;;;;;2.90;1.60;;;25.60;28.80;;;;;;4998233;28;20056;-86
2022/04/19 10:24:14;;;;;;;2.47;1.60;;;25.70;29.30;;;;;;4999120;28;20080;-87
2022/04/19 10:27:09;;;;;;;2.53;1.60;;;25.90;29.60;;;;;;5015271;28;20049;-87
2022/04/19 10:29:34;;;;;;;2.35;1.70;;;26.10;27.60;;;;;;5014656;28;20067;-87
2022/04/19 10:32:02;;;;;;;3.97;1.77;;;26.20;29.10;;;;;;4997937;28;20049;-87
2022/04/19 10:34:30;;;;;;;2.10;1.90;;;26.50;29.20;;;;;;5021565;28;20050;-87
2022/04/19 10:37:04;;;;;;;5.95;1.77;;;26.70;28.70;;;;;;4991187;28;20048;-88
2022/04/19 10:39:33;;;;;;;3.72;1.90;;;27.00;28.60;;;;;;4991449;28;20129;-87
2022/04/19 10:42:04;;;;;;;2.20;1.83;;;27.30;28.90;;;;;;4993292;28;20048;-87
2022/04/19 10:44:48;;;;;;;2.28;1.50;;;27.50;28.20;;;;;;4974945;28;20474;-87
2022/04/19 10:47:23;;;;;;;2.45;1.80;;;27.90;27.50;;;;;;5005453;28;20551;-89
2022/04/19 10:49:54;;;;;;;5.18;1.90;;;27.90;26.60;;;;;;4996104;28;20045;-87
2022/04/19 10:52:43;;;;;;;3.08;1.80;;;27.60;26.30;;;;;;5005585;28;20053;-86
2022/04/19 10:55:19;;;;;;;2.97;1.58;;;27.40;26.50;;;;;;4990175;28;20519;-89
2022/04/19 11:00:51;;;;;;;3.28;2.03;;;27.60;26.90;;;;;;5005621;28;20053;-87
2022/04/19 11:03:19;;;;;;;5.22;1.90;;;27.90;27.20;;;;;;5009268;28;20845;-87
2022/04/19 11:05:50;;;;;;;3.00;1.65;;;27.90;26.70;;;;;;5009925;28;20091;-87
2022/04/19 11:08:21;;;;;;;4.25;1.92;;;28.10;26.10;;;;;;4987477;28;20070;-86
2022/04/19 11:10:48;;;;;;;2.08;1.88;;;28.10;26.30;;;;;;4993979;28;20103;-87
2022/04/19 11:13:13;;;;;;;3.65;2.13;;;28.10;26.50;;;;;;4991801;28;20045;-88
2022/04/19 11:15:42;;;;;;;2.13;1.90;;;28.20;26.30;;;;;;4969198;28;20042;-87
2022/04/19 11:18:30;;;;;;;5.30;2.25;;;28.60;25.90;;;;;;5004619;28;20077;-86
2022/04/19 11:21:03;;;;;;;2.67;1.70;;;28.70;25.40;;;;;;5008185;28;20398;-88
2022/04/19 11:23:40;;;;;;;2.13;1.90;;;28.30;24.50;;;;;;5002141;28;20052;-86
2022/04/19 11:26:10;;;;;;;3.75;2.58;;;28.40;25.30;;;;;;4996982;28;20102;-86
2022/04/19 11:28:35;;;;;;;6.20;2.42;;;28.50;25.20;;;;;;4978595;28;20124;-86
2022/04/19 11:31:01;;;;;;;4.72;2.90;;;28.60;25.30;;;;;;5008397;28;20128;-86
2022/04/19 11:33:36;;;;;;;3.00;2.80;;;28.40;25.50;;;;;;5000900;28;20045;-87
2022/04/19 11:36:02;;;;;;;;;;;28.40;25.90;;;;;;4993392;28;20061;-86
2022/04/19 11:38:33;;;;;;;3.00;2.20;;;28.60;26.30;;;;;;5001364;28;19928;-87
2022/04/19 11:46:49;;;;;;;6.15;2.30;;;29.80;25.30;;;;;;5004243;28;20168;-87
2022/04/19 11:49:26;;;;;;;3.60;2.15;;;30.00;24.80;;;;;;4980364;28;20077;-87
2022/04/19 11:51:54;;;;;;;5.60;2.10;;;29.70;23.40;;;;;;4992764;28;20057;-86
2022/04/19 11:54:22;;;;;;;2.95;2.20;;;29.40;23.90;;;;;;5004391;28;20045;-86
2022/04/19 11:56:53;;;;;;;2.28;2.08;;;29.00;24.30;;;;;;4999200;28;20400;-87
2022/04/19 11:59:25;;;;;;;4.35;2.20;;;28.70;24.70;;;;;;5005701;28;20438;-87
2022/04/19 12:01:51;;;;;;;3.83;2.28;;;28.80;24.60;;;;;;4996569;28;20051;-88
2022/04/19 12:04:17;;;;;;;3.65;2.22;;;29.00;24.50;;;;;;5008836;28;20505;-87
2022/04/19 12:07:09;;;;;;;4.88;2.17;;;29.30;24.30;;;;;;5011071;28;20632;-89
2022/04/19 12:09:36;;;;;;;3.20;2.33;;;29.60;24.20;;;;;;4988739;28;20145;-88
2022/04/19 12:12:02;;;;;;;3.83;2.15;;;29.70;24.30;;;;;;4995701;28;20042;-87
2022/04/19 12:14:32;;;;;;;2.92;2.05;;;30.10;24.00;;;;;;4994353;28;20111;-87
2022/04/19 12:17:03;;;;;;;3.42;1.73;;;30.20;23.10;;;;;;4976670;28;20053;-87
2022/04/19 12:19:35;;;;;;;3.70;1.60;;;30.30;22.90;;;;;;4992162;28;20042;-89
2022/04/19 12:22:02;;;;;;;1.90;1.50;;;30.20;23.10;;;;;;5012210;28;20056;-89
2022/04/19 12:24:29;;;;;;;3.78;1.10;;;30.40;23.30;;;;;;4996410;28;20060;-85
2022/04/19 12:27:07;;;;;;;3.63;1.40;;;30.30;22.50;;;;;;4996368;28;20064;-86
2022/04/19 12:29:37;;;;;;;5.10;1.98;;;30.00;22.20;;;;;;5011255;28;20064;-86
2022/04/19 12:32:05;;;;;;;4.43;2.28;;;30.20;23.00;;;;;;5012024;28;20415;-86
2022/04/19 12:34:36;;;;;;;2.80;2.10;;;30.30;22.90;;;;;;4970272;28;20510;-87
2022/04/19 12:37:12;;;;;;;1.92;1.65;;;30.20;22.90;;;;;;4981346;28;20133;-87
2022/04/19 12:39:37;;;;;;;;;;;30.00;23.40;;;;;;4997261;28;20080;-87
2022/04/19 12:42:10;;;;;;;2.35;1.27;;;29.60;23.00;;;;;;5013978;28;19921;-88
2022/04/19 12:44:37;;;;;;;4.40;1.38;;;29.50;23.00;;;;;;4994813;28;20077;-87
2022/04/19 12:47:11;;;;;;;3.10;1.55;;;29.30;22.40;;;;;;5023886;28;20406;-87
2022/04/19 12:49:46;;;;;;;1.40;1.13;;;29.30;22.70;;;;;;5000268;28;20111;-87
2022/04/19 12:52:14;;;;;;;3.38;1.40;;;29.50;22.70;;;;;;5018849;28;20057;-88
2022/04/19 12:54:46;;;;;;;2.67;1.73;;;29.50;22.60;;;;;;4984974;28;20049;-86
2022/04/19 12:57:23;;;;;;;2.92;1.65;;;29.80;23.00;;;;;;5012168;28;20045;-86
2022/04/19 12:59:50;;;;;;;1.45;1.30;;;30.10;23.10;;;;;;5010646;28;20052;-86
2022/04/19 13:02:18;;;;;;;3.65;1.75;;;30.20;22.50;;;;;;4998779;28;20172;-89
2022/04/19 13:04:45;;;;;;;2.72;2.28;;;30.30;22.40;;;;;;5011675;28;20041;-87
2022/04/19 13:12:40;;;;;;;4.25;2.35;;;30.30;22.30;;;;;;5026401;28;20138;-86
2022/04/19 13:15:07;;;;;;;3.42;2.30;;;30.20;22.70;;;;;;5027170;28;20499;-87
2022/04/19 13:17:37;;;;;;;2.42;2.22;;;30.10;22.70;;;;;;5006651;28;20124;-87
2022/04/19 13:20:04;;;;;;;3.13;2.00;;;30.30;22.90;;;;;;5004511;28;20407;-88
2022/04/19 13:22:30;;;;;;;3.20;2.10;;;30.40;22.70;;;;;;5019064;28;20399;-84
2022/04/19 13:24:57;;;;;;;4.53;2.13;;;30.70;22.70;;;;;;4978871;28;20046;-88
2022/04/19 13:27:25;;;;;;;3.50;2.50;;;30.80;22.10;;;;;;4999406;28;20090;-87
2022/04/19 13:29:52;;;;;;;2.83;2.42;;;30.60;22.40;;;;;;5021311;28;20092;-87
2022/04/19 13:32:19;;;;;;;3.38;2.65;;;30.00;22.20;;;;;;4995527;28;20559;-88
2022/04/19 13:34:44;;;;;;;2.78;2.30;;;29.90;22.40;;;;;;5017274;28;20083;-88